Time;durP1;ratioP1;P1;durP2;ratioP2;P2;SDS_P1;SDS_P2;PMS_P1;PMS_P2;Temp;Humidity;BMP_temperature;BMP_pressure;BME280_temperature;BME280_humidity;BME280_pressure;Samples;Min_cycle;Max_cycle;Signal;HPM_P1;HPM_P2
2022/04/21 00:00:16;;;;;;;4.20;0.90;;;;;;;20.55;38.32;101127.94;4971584;28;20019;-57
2022/04/21 00:02:44;;;;;;;3.38;0.90;;;;;;;20.39;39.06;101120.75;4972510;28;20030;-57
2022/04/21 00:05:11;;;;;;;2.67;0.93;;;;;;;20.21;39.03;101116.59;4973130;28;20529;-57
2022/04/21 00:07:38;;;;;;;4.00;1.40;;;;;;;20.12;39.49;101114.63;4973119;28;20043;-58
2022/04/21 00:10:08;;;;;;;2.47;1.02;;;;;;;20.03;40.47;101114.28;4969895;28;20490;-58
2022/04/21 00:12:35;;;;;;;2.85;1.25;;;;;;;19.92;41.44;101110.69;4973299;28;20031;-57
2022/04/21 00:15:03;;;;;;;3.35;0.85;;;;;;;19.72;41.38;101113.28;4972629;28;20050;-56
2022/04/21 00:17:29;;;;;;;3.88;1.00;;;;;;;19.47;41.21;101116.56;4972473;28;20502;-57
2022/04/21 00:19:56;;;;;;;3.42;1.10;;;;;;;19.40;42.69;101108.63;4972407;28;20090;-58
2022/04/21 00:25:09;;;;;;;5.90;1.00;;;;;;;19.21;42.29;101102.78;4972857;28;20105;-59
2022/04/21 00:27:39;;;;;;;3.35;1.00;;;;;;;19.33;41.99;101112.66;4972472;28;20387;-58
2022/04/21 00:30:07;;;;;;;4.38;1.02;;;;;;;19.21;42.24;101099.22;4973012;28;20027;-60
2022/04/21 00:32:41;;;;;;;3.17;1.00;;;;;;;19.02;42.78;101093.34;4972727;28;20603;-60
2022/04/21 00:35:11;;;;;;;7.18;1.20;;;;;;;18.88;43.46;101106.50;4972166;28;20031;-58
2022/04/21 00:37:45;;;;;;;2.65;1.00;;;;;;;18.76;43.60;101097.66;4972636;28;20110;-58
2022/04/21 00:40:12;;;;;;;2.83;0.95;;;;;;;18.76;44.22;101084.09;4972795;28;20033;-58
2022/04/21 00:42:38;;;;;;;2.25;0.73;;;;;;;18.75;43.44;101093.31;4972905;28;20027;-58
2022/04/21 00:45:05;;;;;;;5.78;1.17;;;;;;;18.57;43.31;101089.03;4972300;28;20034;-58
2022/04/21 00:47:32;;;;;;;1.52;0.70;;;;;;;18.59;44.73;101086.88;4955273;28;20042;-58
2022/04/21 00:49:59;;;;;;;3.47;0.95;;;;;;;18.66;42.88;101084.81;4953374;28;20108;-58
2022/04/21 00:52:26;;;;;;;4.25;1.35;;;;;;;18.37;43.31;101089.56;4962729;28;20047;-58
2022/04/21 00:54:53;;;;;;;2.50;1.05;;;;;;;18.57;43.19;101090.91;4956833;28;20027;-58
2022/04/21 00:57:20;;;;;;;2.00;0.82;;;;;;;18.52;43.69;101088.97;4972358;28;20027;-58
2022/04/21 00:59:46;;;;;;;2.60;0.98;;;;;;;18.46;43.53;101095.38;4972405;28;20051;-58
2022/04/21 01:04:59;;;;;;;4.13;0.90;;;;;;;18.32;44.22;101094.13;4972711;28;20078;-58
2022/04/21 01:07:26;;;;;;;5.80;2.15;;;;;;;18.22;44.59;101088.59;4972397;28;20035;-58
2022/04/21 01:09:55;;;;;;;2.40;0.95;;;;;;;18.24;44.78;101094.56;4970727;28;20110;-58
2022/04/21 01:12:23;;;;;;;3.25;1.13;;;;;;;18.29;45.42;101094.63;4953176;28;20031;-59
2022/04/21 01:14:49;;;;;;;5.30;1.15;;;;;;;18.20;46.83;101096.94;4959930;28;20041;-58
2022/04/21 01:17:16;;;;;;;2.92;0.90;;;;;;;18.15;46.79;101092.25;4975229;28;20419;-59
2022/04/21 01:19:42;;;;;;;3.67;1.30;;;;;;;18.17;46.96;101094.75;4962637;28;20027;-59
2022/04/21 01:22:10;;;;;;;4.13;1.30;;;;;;;18.05;47.27;101089.44;4955301;28;20034;-59
2022/04/21 01:24:36;;;;;;;2.33;1.17;;;;;;;18.10;46.56;101092.22;4960654;28;20023;-59
2022/04/21 01:27:03;;;;;;;2.88;1.08;;;;;;;17.98;46.74;101083.38;4973561;28;20026;-59
2022/04/21 01:29:30;;;;;;;3.20;1.35;;;;;;;17.88;47.27;101085.94;4962485;28;20491;-59
2022/04/21 01:31:56;;;;;;;2.65;1.20;;;;;;;17.85;46.82;101089.13;4954019;28;20031;-59
2022/04/21 01:34:23;;;;;;;4.45;1.17;;;;;;;17.84;46.69;101076.66;4957185;28;20074;-59
2022/04/21 01:42:18;;;;;;;3.58;1.00;;;;;;;17.60;47.79;101073.28;4956756;29;20125;-59
2022/04/21 01:44:44;;;;;;;4.32;1.00;;;;;;;17.54;48.40;101066.97;4955908;28;20054;-59
2022/04/21 01:47:11;;;;;;;2.63;0.80;;;;;;;17.42;48.27;101063.53;4956638;28;20063;-59
2022/04/21 01:49:37;;;;;;;9.65;1.05;;;;;;;17.40;48.02;101062.97;4962565;28;20022;-59
2022/04/21 01:52:04;;;;;;;5.63;1.20;;;;;;;17.37;47.52;101061.56;4957267;28;20035;-59
2022/04/21 01:54:30;;;;;;;3.60;1.00;;;;;;;17.32;48.11;101057.94;4959734;28;20118;-59
2022/04/21 01:56:57;;;;;;;3.75;1.17;;;;;;;17.29;48.61;101058.44;4955814;28;20023;-59
2022/04/21 01:59:23;;;;;;;8.88;1.23;;;;;;;17.31;48.35;101050.91;4958036;28;20531;-59
2022/04/21 02:01:50;;;;;;;4.18;1.10;;;;;;;17.41;48.44;101061.91;4966819;28;20035;-59
2022/04/21 02:04:16;;;;;;;3.15;1.17;;;;;;;17.30;48.42;101060.91;4957546;28;20499;-59
2022/04/21 02:06:42;;;;;;;3.13;1.10;;;;;;;17.28;48.69;101056.81;4958961;28;20030;-59
2022/04/21 02:09:09;;;;;;;3.83;1.10;;;;;;;17.10;49.12;101055.13;4962875;28;20364;-59
2022/04/21 02:11:35;;;;;;;2.45;0.90;;;;;;;17.21;49.03;101050.72;4963974;28;20023;-59
2022/04/21 02:14:01;;;;;;;7.78;1.23;;;;;;;17.19;49.09;101042.03;4970389;28;20035;-59
2022/04/21 02:16:27;;;;;;;3.40;0.95;;;;;;;17.05;49.82;101036.97;4955424;28;20019;-59
2022/04/21 02:18:54;;;;;;;3.25;1.02;;;;;;;17.24;49.45;101034.03;4955732;28;20031;-59
2022/04/21 02:21:20;;;;;;;3.05;1.00;;;;;;;17.02;50.06;101040.13;4955576;28;20387;-59
2022/04/21 02:23:46;;;;;;;3.65;1.10;;;;;;;17.02;50.08;101042.84;4959284;28;20031;-59
2022/04/21 02:26:12;;;;;;;4.22;1.15;;;;;;;17.04;50.28;101042.59;4962541;28;20035;-59
2022/04/21 02:28:39;;;;;;;2.28;1.00;;;;;;;16.99;50.58;101037.09;4974590;28;20035;-60
2022/04/21 02:31:05;;;;;;;4.50;1.20;;;;;;;16.63;51.20;101033.72;4974741;28;20037;-59
2022/04/21 02:33:31;;;;;;;5.93;1.20;;;;;;;16.71;51.42;101030.69;4974995;28;20035;-59
2022/04/21 02:35:57;;;;;;;3.10;1.10;;;;;;;16.73;51.20;101036.66;4974421;28;20104;-60
2022/04/21 02:38:24;;;;;;;5.97;1.77;;;;;;;16.53;51.53;101028.94;4973948;28;20049;-59
2022/04/21 02:40:50;;;;;;;5.80;1.10;;;;;;;16.52;51.95;101032.69;4974820;28;20038;-59
2022/04/21 02:43:16;;;;;;;4.03;1.23;;;;;;;16.46;52.86;101043.66;4974037;28;20050;-59
2022/04/21 02:45:43;;;;;;;3.42;1.20;;;;;;;16.42;52.74;101028.97;4974054;28;20442;-59
2022/04/21 02:48:10;;;;;;;3.78;0.85;;;;;;;16.47;52.66;101019.09;4973794;28;20035;-59
2022/04/21 02:50:36;;;;;;;6.05;1.23;;;;;;;16.46;52.82;101022.03;4973297;28;20089;-59
2022/04/21 02:53:03;;;;;;;3.72;1.20;;;;;;;16.25;55.39;101021.63;4972792;28;20544;-59
2022/04/21 02:58:14;;;;;;;2.63;1.30;;;;;;;16.30;58.23;101023.63;4972836;28;20089;-59
2022/04/21 03:00:41;;;;;;;5.35;1.10;;;;;;;16.26;58.68;101030.53;4953849;28;20549;-59
2022/04/21 03:03:07;;;;;;;1.80;1.17;;;;;;;16.00;58.88;101018.41;4951607;28;20031;-59
2022/04/21 03:05:34;;;;;;;5.05;1.38;;;;;;;15.89;58.72;101016.56;4957726;28;20037;-59
2022/04/21 03:08:00;;;;;;;5.05;1.27;;;;;;;15.82;59.01;101009.41;4956040;28;20110;-59
2022/04/21 03:10:26;;;;;;;4.65;1.75;;;;;;;15.75;58.76;101024.06;4957684;28;20061;-60
2022/04/21 03:12:52;;;;;;;2.70;1.20;;;;;;;15.77;59.01;101028.19;4954761;29;20035;-59
2022/04/21 03:15:18;;;;;;;4.10;1.67;;;;;;;15.69;60.21;101033.09;4952769;28;20180;-59
2022/04/21 03:17:45;;;;;;;9.32;1.20;;;;;;;15.59;60.30;101028.25;4953812;28;20050;-59
2022/04/21 03:24:18;;;;;;;4.43;1.40;;;;;;;15.54;61.02;101037.03;4956498;28;20030;-59
2022/04/21 03:25:41;;;;;;;4.85;1.13;;;;;;;15.44;60.65;101042.22;4951730;28;20577;-59
2022/04/21 03:28:08;;;;;;;6.75;1.48;;;;;;;15.38;62.68;101048.53;4957383;28;20028;-59
2022/04/21 03:30:34;;;;;;;5.47;1.25;;;;;;;15.29;64.35;101052.63;4954606;28;20106;-59
2022/04/21 03:33:01;;;;;;;4.82;1.20;;;;;;;15.05;66.85;101057.97;4981211;28;20066;-58
2022/04/21 03:35:28;;;;;;;5.75;2.55;;;;;;;15.01;67.06;101075.66;4958008;28;20165;-60
2022/04/21 03:37:54;;;;;;;8.10;1.75;;;;;;;14.75;69.17;101071.44;4972196;28;20023;-60
2022/04/21 03:40:21;;;;;;;8.68;1.67;;;;;;;14.50;70.89;101076.13;4970918;28;20066;-60
2022/04/21 03:42:48;;;;;;;7.82;2.33;;;;;;;14.39;70.98;101080.38;4973413;28;20027;-60
2022/04/21 03:45:14;;;;;;;4.10;1.80;;;;;;;14.37;72.40;101082.44;4985121;28;20034;-61
2022/04/21 03:47:41;;;;;;;4.78;1.75;;;;;;;14.45;71.67;101090.25;4953920;28;20031;-61
2022/04/21 03:50:08;;;;;;;6.18;1.73;;;;;;;14.19;73.33;101087.84;4957114;28;20029;-61
2022/04/21 03:52:35;;;;;;;3.72;1.58;;;;;;;14.32;71.80;101093.06;4969243;28;20197;-61
2022/04/21 03:55:01;;;;;;;9.50;2.10;;;;;;;14.31;73.28;101099.50;4967669;28;20026;-60
2022/04/21 03:57:28;;;;;;;9.88;2.03;;;;;;;14.20;73.61;101094.88;4958308;28;20121;-60
2022/04/21 03:59:54;;;;;;;5.53;2.70;;;;;;;14.07;73.83;101101.22;4954543;28;20547;-60
2022/04/21 04:02:20;;;;;;;9.48;2.03;;;;;;;13.88;74.31;101099.53;4951939;28;20043;-61
2022/04/21 04:04:47;;;;;;;3.75;1.77;;;;;;;13.89;74.58;101112.78;4970604;28;20027;-62
2022/04/21 04:12:42;;;;;;;5.15;1.88;;;;;;;13.79;75.37;101112.47;4972604;28;20062;-61
2022/04/21 04:15:12;;;;;;;5.07;1.98;;;;;;;13.81;75.50;101107.66;4973366;28;20102;-60
2022/04/21 04:17:38;;;;;;;6.95;1.70;;;;;;;13.78;75.99;101102.75;4973079;28;20174;-60
2022/04/21 04:20:06;;;;;;;7.07;1.70;;;;;;;13.78;76.31;101102.75;4973081;28;20027;-61
2022/04/21 04:22:37;;;;;;;8.82;1.77;;;;;;;13.95;74.93;101111.06;4972277;28;20053;-61
2022/04/21 04:25:03;;;;;;;5.40;1.45;;;;;;;13.83;76.38;101110.97;4972473;28;20074;-62
2022/04/21 04:27:29;;;;;;;4.15;1.30;;;;;;;13.78;77.03;101108.13;4972701;28;20103;-61
2022/04/21 04:29:56;;;;;;;3.10;1.20;;;;;;;13.72;77.76;101106.31;4960795;28;20059;-61
2022/04/21 04:32:22;;;;;;;5.13;1.42;;;;;;;13.69;78.17;101112.94;4959708;28;20027;-61
2022/04/21 04:34:48;;;;;;;7.00;1.27;;;;;;;13.67;78.38;101116.91;4966581;28;20022;-60
2022/04/21 04:37:14;;;;;;;2.60;1.50;;;;;;;13.76;77.50;101118.25;4969374;28;20542;-60
2022/04/21 04:39:41;;;;;;;7.85;1.83;;;;;;;13.89;76.89;101118.16;4972973;28;20039;-61
2022/04/21 04:42:16;;;;;;;4.60;1.40;;;;;;;13.69;77.94;101115.63;4972199;28;20137;-60
2022/04/21 04:44:44;;;;;;;7.65;1.52;;;;;;;13.75;78.46;101108.56;4972479;28;20363;-62
2022/04/21 04:47:10;;;;;;;6.68;1.77;;;;;;;13.79;77.92;101122.41;4971732;28;20035;-61
2022/04/21 04:49:37;;;;;;;3.78;1.40;;;;;;;13.84;77.67;101123.38;4970301;28;20124;-61
2022/04/21 04:52:03;;;;;;;3.75;1.00;;;;;;;13.78;77.21;101118.88;4990989;28;20495;-60
2022/04/21 04:54:30;;;;;;;3.70;1.33;;;;;;;13.74;77.79;101114.97;4976525;28;20089;-61
2022/04/21 04:56:57;;;;;;;4.40;1.38;;;;;;;13.70;78.20;101127.22;4976245;28;20035;-61
2022/04/21 04:59:23;;;;;;;5.30;1.20;;;;;;;13.73;78.42;101132.19;4974725;28;20081;-61
2022/04/21 05:01:50;;;;;;;3.97;1.10;;;;;;;13.75;78.13;101130.06;4963174;28;20062;-61
2022/04/21 05:04:20;;;;;;;4.47;1.40;;;;;;;13.65;78.89;101119.81;4957186;28;20031;-61
2022/04/21 05:06:52;;;;;;;4.80;1.33;;;;;;;13.71;78.34;101110.88;4959361;28;20034;-61
2022/04/21 05:09:20;;;;;;;6.93;1.60;;;;;;;13.65;80.36;101114.44;4966655;28;20030;-61
2022/04/21 05:11:57;;;;;;;5.68;1.63;;;;;;;13.82;79.58;101112.00;4974617;28;20031;-62
2022/04/21 05:14:24;;;;;;;4.95;1.40;;;;;;;13.89;78.62;101112.78;4956868;28;20038;-62
2022/04/21 05:16:51;;;;;;;4.88;1.20;;;;;;;13.78;78.78;101105.44;4956225;28;20454;-62
2022/04/21 05:19:19;;;;;;;6.03;1.65;;;;;;;13.76;79.44;101104.81;4955367;28;20483;-61
2022/04/21 05:21:48;;;;;;;6.10;1.40;;;;;;;13.85;79.20;101097.31;4956825;28;20539;-62
2022/04/21 05:24:14;;;;;;;4.03;1.70;;;;;;;13.91;79.54;101097.22;4955882;28;20094;-62
2022/04/21 05:26:43;;;;;;;4.22;1.40;;;;;;;14.02;78.61;101103.75;4970732;28;20082;-62
2022/04/21 05:31:59;;;;;;;3.70;1.60;;;;;;;13.98;78.56;101116.81;4956780;28;20037;-62
2022/04/21 05:34:27;;;;;;;5.95;1.27;;;;;;;14.04;78.50;101114.28;4955750;28;20273;-62
2022/04/21 05:36:54;;;;;;;4.65;1.27;;;;;;;14.02;78.97;101124.47;4955764;28;20062;-62
2022/04/21 05:39:22;;;;;;;4.93;1.33;;;;;;;14.14;77.81;101123.50;4955215;28;20384;-61
2022/04/21 05:41:51;;;;;;;4.45;1.17;;;;;;;14.23;77.18;101118.66;4987229;28;20034;-62
2022/04/21 05:44:18;;;;;;;4.03;1.20;;;;;;;14.17;77.94;101111.47;4967258;28;20054;-61
2022/04/21 05:46:45;;;;;;;3.65;1.38;;;;;;;14.20;78.32;101116.41;4954140;28;20502;-62
2022/04/21 05:49:12;;;;;;;3.78;1.30;;;;;;;14.31;76.91;101115.66;4955267;28;20042;-61
2022/04/21 05:51:38;;;;;;;4.97;1.20;;;;;;;14.39;76.24;101120.78;4955767;28;20063;-62
2022/04/21 05:54:06;;;;;;;3.67;1.00;;;;;;;14.44;76.15;101117.41;4955680;28;20047;-61
2022/04/21 05:56:33;;;;;;;2.33;1.30;;;;;;;14.47;75.88;101117.78;4974341;28;20035;-61
2022/04/21 05:59:00;;;;;;;8.15;1.63;;;;;;;14.61;75.07;101112.28;4955482;28;20035;-61
2022/04/21 06:01:26;;;;;;;6.93;1.58;;;;;;;14.49;76.26;101109.47;4973618;28;20035;-61
2022/04/21 06:03:53;;;;;;;4.03;1.30;;;;;;;14.41;76.51;101104.38;4975245;28;20478;-61
2022/04/21 06:06:19;;;;;;;8.13;2.53;;;;;;;14.47;76.12;101106.19;4973795;28;20066;-61
2022/04/21 06:08:45;;;;;;;4.20;1.15;;;;;;;14.45;75.97;101087.56;4974175;28;20038;-61
2022/04/21 06:11:16;;;;;;;3.60;1.20;;;;;;;14.43;76.07;101080.72;4972119;28;20022;-61
2022/04/21 06:13:42;;;;;;;4.70;1.63;;;;;;;14.44;75.02;101074.31;4975015;28;20031;-61
2022/04/21 06:16:10;;;;;;;4.70;1.15;;;;;;;14.57;75.23;101084.94;4972164;28;20372;-61
2022/04/21 06:18:36;;;;;;;3.72;1.15;;;;;;;14.51;75.69;101086.69;4974118;28;20498;-61
2022/04/21 06:21:04;;;;;;;4.68;1.00;;;;;;;14.62;76.02;101093.19;4974831;28;20042;-61
2022/04/21 06:23:33;;;;;;;3.30;1.15;;;;;;;14.50;76.61;101095.00;4973505;28;20440;-61
2022/04/21 06:26:00;;;;;;;5.03;1.08;;;;;;;14.51;75.92;101086.69;4974525;28;20251;-62
2022/04/21 06:28:27;;;;;;;3.00;1.10;;;;;;;14.51;75.83;101086.69;4973316;28;20023;-61
2022/04/21 06:30:54;;;;;;;6.07;1.30;;;;;;;14.53;75.96;101089.97;4973390;28;20041;-61
2022/04/21 06:33:20;;;;;;;5.45;1.17;;;;;;;14.43;75.99;101078.84;4974491;28;20391;-61
2022/04/21 06:35:47;;;;;;;5.53;1.23;;;;;;;14.32;76.99;101076.09;4989025;28;20023;-61
2022/04/21 06:38:14;;;;;;;3.75;1.50;;;;;;;14.39;76.99;101075.00;4983642;23;20136;-61
2022/04/21 06:40:40;;;;;;;4.32;1.48;;;;;;;14.47;76.48;101072.00;4992507;28;20383;-61
2022/04/21 06:48:37;;;;;;;5.95;1.52;;;;;;;14.44;77.25;101058.16;4993755;28;20046;-61
2022/04/21 06:51:05;;;;;;;4.40;1.52;;;;;;;14.44;77.02;101058.97;4993927;28;20518;-61
2022/04/21 06:53:34;;;;;;;5.38;1.33;;;;;;;14.40;76.75;101057.78;4992748;28;20042;-61
2022/04/21 06:56:01;;;;;;;3.50;1.27;;;;;;;14.44;76.72;101053.59;4993368;28;20389;-61
2022/04/21 06:58:28;;;;;;;5.07;1.90;;;;;;;14.51;76.35;101054.34;4992616;28;20071;-62
2022/04/21 07:00:54;;;;;;;7.18;2.05;;;;;;;14.46;76.44;101047.97;4991806;28;20031;-62
2022/04/21 07:03:20;;;;;;;7.47;2.20;;;;;;;14.42;76.40;101046.78;4973996;28;20026;-61
2022/04/21 07:05:50;;;;;;;9.75;2.45;;;;;;;14.33;77.46;101048.97;4993492;28;20030;-61
2022/04/21 07:08:17;;;;;;;9.82;2.50;;;;;;;14.34;76.95;101042.53;4992274;28;20039;-61
2022/04/21 07:10:43;;;;;;;6.80;2.60;;;;;;;14.45;76.87;101033.69;4993060;28;20390;-61
2022/04/21 07:13:10;;;;;;;11.43;2.75;;;;;;;14.44;76.45;101031.22;4991167;28;20030;-61
2022/04/21 07:15:37;;;;;;;8.95;2.72;;;;;;;14.45;76.94;101028.31;4992284;28;20386;-62
2022/04/21 07:18:04;;;;;;;9.38;2.75;;;;;;;14.39;77.30;101026.50;4993621;28;20495;-61
2022/04/21 07:20:30;;;;;;;11.77;2.95;;;;;;;14.38;77.82;101037.50;4991287;28;20105;-62
2022/04/21 07:22:56;;;;;;;12.43;3.53;;;;;;;14.45;77.01;101022.09;4991873;28;20117;-62
2022/04/21 07:25:23;;;;;;;12.10;2.80;;;;;;;14.46;76.80;101031.81;4991566;28;20513;-61
2022/04/21 07:27:49;;;;;;;12.27;2.75;;;;;;;14.51;76.83;101026.59;4993371;28;20026;-62
2022/04/21 07:30:16;;;;;;;15.23;2.55;;;;;;;14.44;76.90;101031.22;4991480;28;20089;-62
2022/04/21 07:32:44;;;;;;;9.32;2.85;;;;;;;14.41;77.33;101037.88;4992675;28;20041;-61
2022/04/21 07:35:11;;;;;;;13.75;3.25;;;;;;;14.44;77.50;101036.63;4991433;28;20475;-61
2022/04/21 07:37:37;;;;;;;7.85;2.80;;;;;;;14.28;78.26;101051.50;4992776;28;20050;-61
2022/04/21 07:40:07;;;;;;;16.75;3.30;;;;;;;14.28;78.13;101048.81;4991768;28;20023;-61
2022/04/21 07:42:33;;;;;;;13.07;3.30;;;;;;;14.37;77.73;101044.75;4992979;28;20386;-61
2022/04/21 07:45:01;;;;;;;16.75;3.28;;;;;;;14.29;78.37;101046.94;4991077;28;20113;-61
2022/04/21 07:47:28;;;;;;;16.00;3.30;;;;;;;14.26;78.71;101050.88;4973744;28;20023;-61
2022/04/21 07:49:56;;;;;;;11.50;3.33;;;;;;;14.27;78.67;101064.16;4982104;28;20049;-61
2022/04/21 07:55:17;;;;;;;10.85;3.33;;;;;;;14.34;78.37;101066.75;4992124;28;20615;-61
2022/04/21 07:57:45;;;;;;;11.82;3.63;;;;;;;14.25;78.44;101054.63;4992447;28;20022;-61
2022/04/21 08:00:13;;;;;;;13.68;3.53;;;;;;;14.22;78.66;101049.72;4992061;28;20068;-61
2022/04/21 08:02:40;;;;;;;15.40;3.65;;;;;;;14.21;78.85;101048.91;4990479;28;20110;-61
2022/04/21 08:05:08;;;;;;;16.90;3.42;;;;;;;14.24;78.41;101036.84;4992163;28;20041;-61
2022/04/21 08:07:36;;;;;;;17.30;4.05;;;;;;;14.37;77.77;101035.84;4991349;28;20487;-61
2022/04/21 08:10:04;;;;;;;13.70;3.53;;;;;;;14.33;78.00;101032.81;4992250;28;20058;-61
2022/04/21 08:12:40;;;;;;;16.63;4.35;;;;;;;14.36;77.76;101034.22;4991048;28;20026;-61
2022/04/21 08:15:08;;;;;;;11.20;3.70;;;;;;;14.35;77.02;101029.88;4991734;28;20470;-61
2022/04/21 08:17:38;;;;;;;18.00;4.00;;;;;;;14.33;78.34;101032.00;4990826;28;20034;-61
2022/04/21 08:20:09;;;;;;;12.63;3.58;;;;;;;14.29;78.61;101033.47;4990654;28;20054;-61
2022/04/21 08:22:37;;;;;;;16.30;3.75;;;;;;;14.20;79.46;101046.41;4989686;28;20513;-61
2022/04/21 08:33:18;;;;;;;14.75;4.32;;;;;;;14.15;78.56;101038.19;4992046;28;20140;-61
2022/04/21 08:35:46;;;;;;;18.98;4.20;;;;;;;14.09;79.10;101036.38;4992030;28;20026;-62
2022/04/21 08:38:13;;;;;;;13.95;4.15;;;;;;;14.05;79.65;101040.56;4990688;28;20129;-61
2022/04/21 08:40:49;;;;;;;17.63;3.83;;;;;;;14.03;79.67;101030.03;4990673;28;20467;-61
2022/04/21 08:43:16;;;;;;;20.85;3.88;;;;;;;14.11;78.81;101042.41;4992096;28;20018;-61
2022/04/21 08:45:47;;;;;;;16.60;3.60;;;;;;;14.14;78.18;101034.66;4989923;28;20031;-61
2022/04/21 08:48:18;;;;;;;14.38;3.72;;;;;;;14.13;78.07;101029.53;4991912;28;20026;-62
2022/04/21 08:50:45;;;;;;;18.00;4.07;;;;;;;14.10;78.71;101036.19;4991359;28;20026;-61
2022/04/21 08:53:15;;;;;;;19.65;4.68;;;;;;;14.16;78.59;101034.47;4990342;28;20033;-62
2022/04/21 08:55:42;;;;;;;19.08;4.43;;;;;;;14.06;78.86;101026.09;4990404;28;20065;-61
2022/04/21 08:58:08;;;;;;;15.55;4.40;;;;;;;14.09;77.88;101021.06;4990987;28;20457;-61
2022/04/21 09:00:34;;;;;;;21.88;4.50;;;;;;;14.16;77.11;101023.69;4990544;28;20061;-61
2022/04/21 09:03:04;;;;;;;16.13;3.42;;;;;;;14.08;78.32;101019.41;4973035;28;20053;-61
2022/04/21 09:05:30;;;;;;;13.35;4.05;;;;;;;14.22;77.24;101022.81;4991824;28;20080;-61
2022/04/21 09:07:58;;;;;;;13.75;3.75;;;;;;;14.26;77.54;101019.41;4989318;28;20491;-61
2022/04/21 09:10:26;;;;;;;18.40;4.60;;;;;;;14.13;77.71;101024.13;4991807;28;20045;-61
2022/04/21 09:12:58;;;;;;;16.27;3.97;;;;;;;14.04;77.63;101006.63;4990399;28;20033;-61
2022/04/21 09:15:29;;;;;;;23.67;3.95;;;;;;;14.05;78.12;101013.66;4991467;28;20112;-61
2022/04/21 09:17:59;;;;;;;17.65;3.83;;;;;;;14.09;77.02;101009.47;4989816;28;20082;-61
2022/04/21 09:20:33;;;;;;;22.00;4.30;;;;;;;13.93;77.44;101013.59;4991880;28;20534;-61
2022/04/21 09:23:01;;;;;;;23.17;4.15;;;;;;;13.93;77.42;101005.50;4990707;28;20026;-61
2022/04/21 09:25:47;;;;;;;18.27;4.13;;;;;;;13.89;78.33;101015.09;4989660;28;20498;-61
2022/04/21 09:28:24;;;;;;;18.90;4.70;;;;;;;13.84;79.02;100998.81;4989424;28;20570;-61
2022/04/21 09:30:52;;;;;;;19.15;4.68;;;;;;;13.92;78.76;101002.00;4990162;28;20030;-61
2022/04/21 09:33:32;;;;;;;18.85;4.82;;;;;;;13.91;78.55;101005.75;4999057;23;20096;-61
2022/04/21 09:36:01;;;;;;;21.58;4.47;;;;;;;13.74;80.08;101000.13;4999012;28;20029;-61
2022/04/21 09:38:27;;;;;;;12.32;4.72;;;;;;;13.72;79.94;101007.59;5015044;28;20021;-61
2022/04/21 09:40:54;;;;;;;17.52;4.88;;;;;;;13.77;79.37;101014.16;5013244;28;20076;-61
2022/04/21 09:43:29;;;;;;;20.27;5.28;;;;;;;13.57;79.52;101012.50;5013961;28;20026;-62
2022/04/21 09:46:17;;;;;;;16.20;4.05;;;;;;;13.61;79.37;101015.59;5003921;28;20029;-61
2022/04/21 09:48:46;;;;;;;19.20;4.70;;;;;;;13.67;78.93;101012.84;5014739;28;20034;-61
2022/04/21 09:51:17;;;;;;;12.43;4.22;;;;;;;13.65;78.77;101022.16;5011976;28;20026;-61
2022/04/21 09:53:57;;;;;;;25.02;5.28;;;;;;;13.74;77.85;101020.81;5014661;28;20022;-61
2022/04/21 09:56:37;;;;;;;16.35;4.07;;;;;;;13.76;77.58;101012.53;5007850;28;20018;-61
2022/04/21 09:59:08;;;;;;;19.63;4.75;;;;;;;13.80;77.24;101022.63;4994828;28;20105;-61
2022/04/21 10:01:41;;;;;;;22.38;5.38;;;;;;;13.78;76.57;101022.03;5001685;28;20080;-61
2022/04/21 10:04:12;;;;;;;17.20;5.07;;;;;;;13.83;76.61;101019.50;5014332;28;20044;-61
2022/04/21 10:06:43;;;;;;;19.27;4.53;;;;;;;13.91;75.55;101021.88;5011764;28;20083;-61
2022/04/21 10:09:10;;;;;;;22.02;5.00;;;;;;;13.86;75.94;101016.34;5015119;28;20153;-61
2022/04/21 10:11:42;;;;;;;19.95;4.53;;;;;;;13.83;75.72;101007.94;5010847;28;20092;-61
2022/04/21 10:14:13;;;;;;;21.88;4.90;;;;;;;13.84;75.92;101013.06;5015194;28;20087;-61
2022/04/21 10:16:42;;;;;;;20.25;4.60;;;;;;;13.81;76.09;101016.19;5012256;28;20038;-61
2022/04/21 10:19:10;;;;;;;17.60;4.63;;;;;;;13.87;75.52;101022.56;5013962;28;20058;-61
2022/04/21 10:22:02;;;;;;;19.20;4.68;;;;;;;13.79;75.51;101018.28;4994832;28;20398;-61
2022/04/21 10:24:34;;;;;;;15.98;4.15;;;;;;;13.81;75.65;101021.56;4995759;28;20109;-61
2022/04/21 10:27:01;;;;;;;20.02;4.88;;;;;;;13.80;75.26;101022.63;5009443;28;20066;-61
2022/04/21 10:29:27;;;;;;;19.63;4.85;;;;;;;13.86;75.17;101021.72;5011265;28;20086;-61
2022/04/21 10:32:03;;;;;;;22.67;5.35;;;;;;;13.99;74.83;101021.59;5013452;28;20046;-61
2022/04/21 10:34:46;;;;;;;18.33;4.35;;;;;;;14.03;73.71;101023.84;5012163;28;20042;-61
2022/04/21 10:37:24;;;;;;;20.35;5.03;;;;;;;14.10;73.26;101036.19;5013501;28;20377;-61
2022/04/21 10:40:07;;;;;;;16.83;5.00;;;;;;;14.07;74.32;101036.63;4994452;28;20026;-61
2022/04/21 10:42:52;;;;;;;29.35;5.28;;;;;;;13.98;73.90;101033.41;4992957;28;20060;-61
2022/04/21 10:45:25;;;;;;;23.08;4.70;;;;;;;13.96;73.79;101035.50;4992694;28;20105;-61
2022/04/21 10:48:12;;;;;;;19.35;4.78;;;;;;;13.86;74.19;101026.28;5012749;28;20492;-61
2022/04/21 10:50:43;;;;;;;21.40;4.93;;;;;;;13.87;74.11;101026.06;5011186;28;20525;-61
2022/04/21 10:58:41;;;;;;;18.85;5.43;;;;;;;13.93;73.82;101030.56;4993635;28;20038;-61
2022/04/21 11:01:16;;;;;;;25.08;5.20;;;;;;;13.98;74.54;101035.25;5008070;28;20021;-61
2022/04/21 11:03:45;;;;;;;14.43;3.78;;;;;;;13.99;73.79;101024.31;5011635;28;20026;-61
2022/04/21 11:06:13;;;;;;;26.42;5.38;;;;;;;14.02;73.70;101039.16;5011699;28;20022;-61
2022/04/21 11:08:41;;;;;;;18.88;4.55;;;;;;;14.05;73.49;101029.81;5012800;28;20139;-62
2022/04/21 11:11:07;;;;;;;15.50;4.43;;;;;;;14.15;73.17;101022.84;4993510;28;20037;-61
2022/04/21 11:13:49;;;;;;;14.60;4.07;;;;;;;14.16;73.08;101021.00;4993506;28;20074;-61
2022/04/21 11:16:42;;;;;;;17.10;4.55;;;;;;;14.09;73.67;101022.94;4973432;28;20113;-61
2022/04/21 11:19:53;;;;;;;19.15;5.07;;;;;;;14.24;72.82;101020.69;4979915;28;20491;-61
2022/04/21 11:22:42;;;;;;;20.50;4.43;;;;;;;14.17;72.40;101036.09;4991461;28;20046;-61
2022/04/21 11:25:08;;;;;;;24.50;5.40;;;;;;;14.13;73.24;101032.22;5001554;28;20030;-61
2022/04/21 11:27:42;;;;;;;17.20;4.85;;;;;;;14.12;72.52;101041.34;5001468;28;20030;-61
2022/04/21 11:30:12;;;;;;;16.08;4.43;;;;;;;14.06;72.49;101039.56;4993739;28;20037;-61
2022/04/21 11:32:48;;;;;;;18.67;4.95;;;;;;;13.92;72.78;101034.28;4973753;28;20046;-61
2022/04/21 11:35:16;;;;;;;14.68;4.68;;;;;;;13.89;72.91;101028.56;4973480;28;20066;-61
2022/04/21 11:37:46;;;;;;;18.27;5.18;;;;;;;13.96;71.95;101032.00;4984329;28;20058;-61
2022/04/21 11:40:41;;;;;;;17.80;3.95;;;;;;;13.83;73.37;101032.13;4992793;28;20110;-61
2022/04/21 11:43:17;;;;;;;19.80;4.25;;;;;;;13.92;72.27;101034.28;4985487;28;20042;-61
2022/04/21 11:45:57;;;;;;;17.02;4.78;;;;;;;13.95;73.16;101043.81;4992911;28;20038;-62
2022/04/21 11:48:29;;;;;;;14.38;3.75;;;;;;;13.96;72.17;101050.81;4993077;28;20019;-61
2022/04/21 11:50:55;;;;;;;13.93;4.47;;;;;;;13.96;71.37;101057.03;4995857;28;20058;-61
2022/04/21 11:53:22;;;;;;;11.95;4.05;;;;;;;13.80;72.04;101052.22;4992159;28;20541;-61
2022/04/21 11:55:50;;;;;;;12.60;3.33;;;;;;;13.65;71.54;101062.50;4993397;28;20534;-61
2022/04/21 11:58:31;;;;;;;13.23;4.25;;;;;;;13.70;71.46;101066.16;4991657;28;20033;-61
2022/04/21 12:06:50;;;;;;;13.48;3.80;;;;;;;13.52;70.08;101063.44;5001803;28;20070;-62
2022/04/21 12:09:19;;;;;;;9.85;3.13;;;;;;;13.53;70.01;101058.88;5012337;28;20096;-61
2022/04/21 12:11:57;;;;;;;10.70;3.67;;;;;;;13.53;70.57;101053.50;5000127;28;20026;-62
2022/04/21 12:14:25;;;;;;;14.13;3.30;;;;;;;13.52;69.64;101059.94;4992399;28;20549;-62
2022/04/21 12:16:53;;;;;;;6.80;2.55;;;;;;;13.43;69.44;101067.44;4992191;28;20069;-62
2022/04/21 12:19:44;;;;;;;9.57;3.03;;;;;;;13.32;69.37;101068.16;4992058;28;20095;-62
2022/04/21 12:22:17;;;;;;;8.90;2.90;;;;;;;13.33;69.37;101064.44;4992788;28;20038;-62